sensor_id;sensor_type;location;lat;lon;timestamp;P1;durP1;ratioP1;P2;durP2;ratioP2
14789;SDS011;7486;51.010;10.366;2023-02-28T00:01:52;3.37;;;3.07;;
14789;SDS011;7486;51.010;10.366;2023-02-28T00:04:37;4.33;;;3.13;;
14789;SDS011;7486;51.010;10.366;2023-02-28T00:07:23;3.87;;;3.10;;
14789;SDS011;7486;51.010;10.366;2023-02-28T00:10:10;4.07;;;3.37;;
14789;SDS011;7486;51.010;10.366;2023-02-28T00:13:04;3.37;;;3.07;;
14789;SDS011;7486;51.010;10.366;2023-02-28T00:19:11;5.20;;;3.10;;
14789;SDS011;7486;51.010;10.366;2023-02-28T00:21:57;5.03;;;3.20;;
14789;SDS011;7486;51.010;10.366;2023-02-28T00:24:42;4.37;;;3.23;;
14789;SDS011;7486;51.010;10.366;2023-02-28T00:27:28;4.17;;;2.83;;
14789;SDS011;7486;51.010;10.366;2023-02-28T00:30:14;3.50;;;3.20;;
14789;SDS011;7486;51.010;10.366;2023-02-28T00:33:02;3.10;;;2.80;;
14789;SDS011;7486;51.010;10.366;2023-02-28T00:35:47;3.77;;;2.80;;
14789;SDS011;7486;51.010;10.366;2023-02-28T00:38:32;3.83;;;3.23;;
14789;SDS011;7486;51.010;10.366;2023-02-28T00:41:19;5.70;;;3.13;;
14789;SDS011;7486;51.010;10.366;2023-02-28T00:44:04;3.73;;;3.00;;
14789;SDS011;7486;51.010;10.366;2023-02-28T00:46:50;4.53;;;3.27;;
14789;SDS011;7486;51.010;10.366;2023-02-28T00:49:35;4.93;;;3.20;;
14789;SDS011;7486;51.010;10.366;2023-02-28T00:52:21;3.37;;;3.00;;
14789;SDS011;7486;51.010;10.366;2023-02-28T00:55:07;4.00;;;2.60;;
14789;SDS011;7486;51.010;10.366;2023-02-28T00:57:52;3.47;;;3.00;;
14789;SDS011;7486;51.010;10.366;2023-02-28T01:00:38;3.60;;;3.30;;
14789;SDS011;7486;51.010;10.366;2023-02-28T01:03:23;3.93;;;3.00;;
14789;SDS011;7486;51.010;10.366;2023-02-28T01:06:09;3.87;;;3.07;;
14789;SDS011;7486;51.010;10.366;2023-02-28T01:08:56;3.90;;;3.23;;
14789;SDS011;7486;51.010;10.366;2023-02-28T01:11:41;3.10;;;2.80;;
14789;SDS011;7486;51.010;10.366;2023-02-28T01:14:27;3.17;;;2.87;;
14789;SDS011;7486;51.010;10.366;2023-02-28T01:17:12;4.27;;;2.90;;
14789;SDS011;7486;51.010;10.366;2023-02-28T01:19:58;3.47;;;2.90;;
14789;SDS011;7486;51.010;10.366;2023-02-28T01:22:44;3.83;;;2.87;;
14789;SDS011;7486;51.010;10.366;2023-02-28T01:25:29;3.90;;;2.80;;
14789;SDS011;7486;51.010;10.366;2023-02-28T01:28:14;3.90;;;2.73;;
14789;SDS011;7486;51.010;10.366;2023-02-28T01:31:00;3.63;;;2.60;;
14789;SDS011;7486;51.010;10.366;2023-02-28T01:33:46;2.97;;;2.37;;
14789;SDS011;7486;51.010;10.366;2023-02-28T01:36:32;4.30;;;2.90;;
14789;SDS011;7486;51.010;10.366;2023-02-28T01:39:17;3.93;;;2.77;;
14789;SDS011;7486;51.010;10.366;2023-02-28T01:42:02;2.97;;;2.63;;
14789;SDS011;7486;51.010;10.366;2023-02-28T01:48:10;3.33;;;3.03;;
14789;SDS011;7486;51.010;10.366;2023-02-28T01:50:57;4.77;;;2.90;;
14789;SDS011;7486;51.010;10.366;2023-02-28T01:53:54;3.87;;;2.33;;
14789;SDS011;7486;51.010;10.366;2023-02-28T01:56:45;3.43;;;2.57;;
14789;SDS011;7486;51.010;10.366;2023-02-28T02:02:59;2.53;;;2.20;;
14789;SDS011;7486;51.010;10.366;2023-02-28T02:05:49;2.47;;;2.20;;
14789;SDS011;7486;51.010;10.366;2023-02-28T02:08:35;3.80;;;2.43;;
14789;SDS011;7486;51.010;10.366;2023-02-28T02:11:22;4.07;;;2.27;;
14789;SDS011;7486;51.010;10.366;2023-02-28T02:14:17;2.80;;;2.30;;
14789;SDS011;7486;51.010;10.366;2023-02-28T02:33:02;3.23;;;2.50;;
14789;SDS011;7486;51.010;10.366;2023-02-28T02:41:51;3.07;;;2.43;;
14789;SDS011;7486;51.010;10.366;2023-02-28T02:44:49;2.67;;;2.40;;
14789;SDS011;7486;51.010;10.366;2023-02-28T02:47:37;3.33;;;2.60;;
14789;SDS011;7486;51.010;10.366;2023-02-28T02:50:25;3.23;;;2.53;;
14789;SDS011;7486;51.010;10.366;2023-02-28T02:53:16;2.73;;;2.53;;
14789;SDS011;7486;51.010;10.366;2023-02-28T02:56:06;3.47;;;2.70;;
14789;SDS011;7486;51.010;10.366;2023-02-28T02:58:53;3.50;;;2.73;;
14789;SDS011;7486;51.010;10.366;2023-02-28T03:01:44;3.00;;;2.50;;
14789;SDS011;7486;51.010;10.366;2023-02-28T03:04:34;2.73;;;2.47;;
14789;SDS011;7486;51.010;10.366;2023-02-28T03:07:26;3.03;;;2.60;;
14789;SDS011;7486;51.010;10.366;2023-02-28T03:13:32;3.03;;;2.67;;
14789;SDS011;7486;51.010;10.366;2023-02-28T03:29:33;2.33;;;2.07;;
14789;SDS011;7486;51.010;10.366;2023-02-28T03:32:27;2.37;;;2.17;;
14789;SDS011;7486;51.010;10.366;2023-02-28T03:35:21;2.63;;;2.10;;
14789;SDS011;7486;51.010;10.366;2023-02-28T03:38:29;2.60;;;2.33;;
14789;SDS011;7486;51.010;10.366;2023-02-28T03:41:21;2.70;;;2.10;;
14789;SDS011;7486;51.010;10.366;2023-02-28T03:44:10;2.33;;;2.10;;
14789;SDS011;7486;51.010;10.366;2023-02-28T03:47:02;2.67;;;1.97;;
14789;SDS011;7486;51.010;10.366;2023-02-28T03:53:04;2.60;;;2.00;;
14789;SDS011;7486;51.010;10.366;2023-02-28T03:59:28;4.17;;;2.20;;
14789;SDS011;7486;51.010;10.366;2023-02-28T04:02:35;2.43;;;2.23;;
14789;SDS011;7486;51.010;10.366;2023-02-28T04:05:21;2.73;;;2.03;;
14789;SDS011;7486;51.010;10.366;2023-02-28T04:08:07;2.67;;;2.13;;
14789;SDS011;7486;51.010;10.366;2023-02-28T04:10:55;2.50;;;2.30;;
14789;SDS011;7486;51.010;10.366;2023-02-28T04:13:46;4.30;;;2.00;;
14789;SDS011;7486;51.010;10.366;2023-02-28T04:16:32;2.87;;;2.00;;
14789;SDS011;7486;51.010;10.366;2023-02-28T04:19:20;2.63;;;2.10;;
14789;SDS011;7486;51.010;10.366;2023-02-28T04:22:05;3.23;;;2.40;;
14789;SDS011;7486;51.010;10.366;2023-02-28T04:24:51;2.43;;;2.23;;
14789;SDS011;7486;51.010;10.366;2023-02-28T04:27:36;2.67;;;2.30;;
14789;SDS011;7486;51.010;10.366;2023-02-28T04:30:22;3.07;;;2.20;;
14789;SDS011;7486;51.010;10.366;2023-02-28T04:33:07;2.37;;;2.13;;
14789;SDS011;7486;51.010;10.366;2023-02-28T04:36:03;2.67;;;2.20;;
14789;SDS011;7486;51.010;10.366;2023-02-28T04:38:50;3.17;;;2.27;;
14789;SDS011;7486;51.010;10.366;2023-02-28T04:41:35;2.63;;;2.30;;
14789;SDS011;7486;51.010;10.366;2023-02-28T04:44:20;2.53;;;2.10;;
14789;SDS011;7486;51.010;10.366;2023-02-28T04:47:07;3.97;;;2.17;;
14789;SDS011;7486;51.010;10.366;2023-02-28T04:49:52;2.53;;;1.90;;
14789;SDS011;7486;51.010;10.366;2023-02-28T04:52:37;2.33;;;2.13;;
14789;SDS011;7486;51.010;10.366;2023-02-28T04:55:23;2.70;;;2.00;;
14789;SDS011;7486;51.010;10.366;2023-02-28T04:58:08;3.43;;;2.20;;
14789;SDS011;7486;51.010;10.366;2023-02-28T05:00:54;4.50;;;2.33;;
14789;SDS011;7486;51.010;10.366;2023-02-28T05:03:47;2.10;;;1.90;;
14789;SDS011;7486;51.010;10.366;2023-02-28T05:06:34;2.80;;;1.80;;
14789;SDS011;7486;51.010;10.366;2023-02-28T05:09:19;2.47;;;2.20;;
14789;SDS011;7486;51.010;10.366;2023-02-28T05:12:04;3.30;;;2.23;;
14789;SDS011;7486;51.010;10.366;2023-02-28T05:14:50;2.80;;;2.40;;
14789;SDS011;7486;51.010;10.366;2023-02-28T05:17:35;3.27;;;2.40;;
14789;SDS011;7486;51.010;10.366;2023-02-28T05:20:20;2.77;;;2.07;;
14789;SDS011;7486;51.010;10.366;2023-02-28T05:23:06;3.37;;;2.30;;
14789;SDS011;7486;51.010;10.366;2023-02-28T05:25:53;3.73;;;2.50;;
14789;SDS011;7486;51.010;10.366;2023-02-28T05:28:38;3.47;;;2.53;;
14789;SDS011;7486;51.010;10.366;2023-02-28T05:31:23;3.13;;;2.33;;
14789;SDS011;7486;51.010;10.366;2023-02-28T05:34:09;3.47;;;2.60;;
14789;SDS011;7486;51.010;10.366;2023-02-28T05:36:54;2.83;;;2.43;;
14789;SDS011;7486;51.010;10.366;2023-02-28T05:39:39;4.00;;;2.37;;
14789;SDS011;7486;51.010;10.366;2023-02-28T05:42:25;4.17;;;2.67;;
14789;SDS011;7486;51.010;10.366;2023-02-28T05:45:10;2.77;;;2.50;;
14789;SDS011;7486;51.010;10.366;2023-02-28T05:48:00;5.17;;;2.53;;
14789;SDS011;7486;51.010;10.366;2023-02-28T05:50:45;2.77;;;2.43;;
14789;SDS011;7486;51.010;10.366;2023-02-28T05:53:31;3.17;;;2.23;;
14789;SDS011;7486;51.010;10.366;2023-02-28T05:56:16;2.60;;;2.30;;
14789;SDS011;7486;51.010;10.366;2023-02-28T05:59:02;2.70;;;2.50;;
14789;SDS011;7486;51.010;10.366;2023-02-28T06:01:47;3.73;;;2.33;;
14789;SDS011;7486;51.010;10.366;2023-02-28T06:04:33;2.93;;;2.37;;
14789;SDS011;7486;51.010;10.366;2023-02-28T06:07:18;4.33;;;2.70;;
14789;SDS011;7486;51.010;10.366;2023-02-28T06:10:04;4.97;;;2.63;;
14789;SDS011;7486;51.010;10.366;2023-02-28T06:12:50;4.97;;;2.70;;
14789;SDS011;7486;51.010;10.366;2023-02-28T06:15:35;3.10;;;2.57;;
14789;SDS011;7486;51.010;10.366;2023-02-28T06:18:21;3.97;;;2.50;;
14789;SDS011;7486;51.010;10.366;2023-02-28T06:21:06;3.13;;;2.63;;
14789;SDS011;7486;51.010;10.366;2023-02-28T06:23:52;2.73;;;2.53;;
14789;SDS011;7486;51.010;10.366;2023-02-28T06:26:39;4.03;;;2.90;;
14789;SDS011;7486;51.010;10.366;2023-02-28T06:29:25;2.80;;;2.50;;
14789;SDS011;7486;51.010;10.366;2023-02-28T06:32:10;4.10;;;2.80;;
14789;SDS011;7486;51.010;10.366;2023-02-28T06:34:55;2.70;;;2.43;;
14789;SDS011;7486;51.010;10.366;2023-02-28T06:37:41;2.70;;;2.40;;
14789;SDS011;7486;51.010;10.366;2023-02-28T06:40:26;3.10;;;2.60;;
14789;SDS011;7486;51.010;10.366;2023-02-28T06:43:12;3.63;;;2.50;;
14789;SDS011;7486;51.010;10.366;2023-02-28T06:45:58;2.57;;;2.20;;
14789;SDS011;7486;51.010;10.366;2023-02-28T06:48:45;2.80;;;2.30;;
14789;SDS011;7486;51.010;10.366;2023-02-28T06:51:30;3.43;;;2.40;;
14789;SDS011;7486;51.010;10.366;2023-02-28T06:54:15;3.37;;;2.50;;
14789;SDS011;7486;51.010;10.366;2023-02-28T06:57:01;3.40;;;2.50;;
14789;SDS011;7486;51.010;10.366;2023-02-28T06:59:47;2.70;;;2.50;;
14789;SDS011;7486;51.010;10.366;2023-02-28T07:02:34;2.70;;;2.50;;
14789;SDS011;7486;51.010;10.366;2023-02-28T07:05:20;3.37;;;2.67;;
14789;SDS011;7486;51.010;10.366;2023-02-28T07:08:06;3.40;;;2.70;;
14789;SDS011;7486;51.010;10.366;2023-02-28T07:10:52;3.50;;;2.63;;
14789;SDS011;7486;51.010;10.366;2023-02-28T07:13:40;2.80;;;2.50;;
14789;SDS011;7486;51.010;10.366;2023-02-28T07:16:26;2.27;;;2.07;;
14789;SDS011;7486;51.010;10.366;2023-02-28T07:19:11;3.40;;;2.90;;
14789;SDS011;7486;51.010;10.366;2023-02-28T07:21:56;3.30;;;2.80;;
14789;SDS011;7486;51.010;10.366;2023-02-28T07:24:42;3.03;;;2.63;;
14789;SDS011;7486;51.010;10.366;2023-02-28T07:27:27;3.70;;;2.93;;
14789;SDS011;7486;51.010;10.366;2023-02-28T07:30:13;2.73;;;2.43;;
14789;SDS011;7486;51.010;10.366;2023-02-28T07:32:58;3.43;;;3.00;;
14789;SDS011;7486;51.010;10.366;2023-02-28T07:35:44;3.90;;;2.63;;
14789;SDS011;7486;51.010;10.366;2023-02-28T07:38:30;3.20;;;2.53;;
14789;SDS011;7486;51.010;10.366;2023-02-28T07:41:16;3.73;;;2.90;;
14789;SDS011;7486;51.010;10.366;2023-02-28T07:44:03;3.70;;;2.60;;
14789;SDS011;7486;51.010;10.366;2023-02-28T07:46:48;4.07;;;2.70;;
14789;SDS011;7486;51.010;10.366;2023-02-28T07:49:34;4.10;;;2.67;;
14789;SDS011;7486;51.010;10.366;2023-02-28T07:52:23;3.83;;;2.83;;
14789;SDS011;7486;51.010;10.366;2023-02-28T07:55:09;4.03;;;3.47;;
14789;SDS011;7486;51.010;10.366;2023-02-28T07:57:57;3.00;;;2.70;;
14789;SDS011;7486;51.010;10.366;2023-02-28T08:00:43;3.60;;;3.10;;
14789;SDS011;7486;51.010;10.366;2023-02-28T08:03:28;4.07;;;3.13;;
14789;SDS011;7486;51.010;10.366;2023-02-28T08:06:18;4.80;;;3.40;;
14789;SDS011;7486;51.010;10.366;2023-02-28T08:09:05;3.50;;;3.20;;
14789;SDS011;7486;51.010;10.366;2023-02-28T08:11:50;5.43;;;3.30;;
14789;SDS011;7486;51.010;10.366;2023-02-28T08:14:36;5.00;;;3.57;;
14789;SDS011;7486;51.010;10.366;2023-02-28T08:17:22;4.60;;;3.13;;
14789;SDS011;7486;51.010;10.366;2023-02-28T08:20:08;4.40;;;3.40;;
14789;SDS011;7486;51.010;10.366;2023-02-28T08:22:54;3.77;;;3.37;;
14789;SDS011;7486;51.010;10.366;2023-02-28T08:25:39;4.17;;;3.17;;
14789;SDS011;7486;51.010;10.366;2023-02-28T08:28:25;3.97;;;3.57;;
14789;SDS011;7486;51.010;10.366;2023-02-28T08:31:12;4.50;;;3.57;;
14789;SDS011;7486;51.010;10.366;2023-02-28T08:34:00;3.20;;;2.80;;
14789;SDS011;7486;51.010;10.366;2023-02-28T08:36:45;3.90;;;2.90;;
14789;SDS011;7486;51.010;10.366;2023-02-28T08:39:30;3.43;;;3.00;;
14789;SDS011;7486;51.010;10.366;2023-02-28T08:42:19;3.43;;;2.97;;
14789;SDS011;7486;51.010;10.366;2023-02-28T08:45:05;4.53;;;3.33;;
14789;SDS011;7486;51.010;10.366;2023-02-28T08:47:50;4.03;;;3.03;;
14789;SDS011;7486;51.010;10.366;2023-02-28T08:50:36;3.97;;;3.40;;
14789;SDS011;7486;51.010;10.366;2023-02-28T08:53:21;4.63;;;2.80;;
14789;SDS011;7486;51.010;10.366;2023-02-28T08:56:09;4.60;;;3.30;;
14789;SDS011;7486;51.010;10.366;2023-02-28T08:58:56;5.20;;;3.17;;
14789;SDS011;7486;51.010;10.366;2023-02-28T09:01:42;4.63;;;3.40;;
14789;SDS011;7486;51.010;10.366;2023-02-28T09:04:28;4.97;;;3.27;;
14789;SDS011;7486;51.010;10.366;2023-02-28T09:07:13;4.37;;;3.50;;
14789;SDS011;7486;51.010;10.366;2023-02-28T09:09:59;4.33;;;3.50;;
14789;SDS011;7486;51.010;10.366;2023-02-28T09:12:44;4.10;;;3.10;;
14789;SDS011;7486;51.010;10.366;2023-02-28T09:15:29;5.80;;;3.30;;
14789;SDS011;7486;51.010;10.366;2023-02-28T09:18:15;4.83;;;3.13;;
14789;SDS011;7486;51.010;10.366;2023-02-28T09:21:02;4.10;;;3.03;;
14789;SDS011;7486;51.010;10.366;2023-02-28T09:23:49;3.40;;;2.90;;
14789;SDS011;7486;51.010;10.366;2023-02-28T09:26:35;4.73;;;3.33;;
14789;SDS011;7486;51.010;10.366;2023-02-28T09:29:31;3.33;;;2.70;;
14789;SDS011;7486;51.010;10.366;2023-02-28T09:32:18;3.63;;;3.30;;
14789;SDS011;7486;51.010;10.366;2023-02-28T09:35:03;5.00;;;3.40;;
14789;SDS011;7486;51.010;10.366;2023-02-28T09:37:50;4.60;;;3.40;;
14789;SDS011;7486;51.010;10.366;2023-02-28T09:40:53;6.57;;;3.60;;
14789;SDS011;7486;51.010;10.366;2023-02-28T09:44:01;3.63;;;3.33;;
14789;SDS011;7486;51.010;10.366;2023-02-28T09:46:50;3.93;;;2.90;;
14789;SDS011;7486;51.010;10.366;2023-02-28T09:49:42;3.40;;;2.80;;
14789;SDS011;7486;51.010;10.366;2023-02-28T09:52:31;4.43;;;3.03;;
14789;SDS011;7486;51.010;10.366;2023-02-28T09:58:41;3.63;;;3.00;;
14789;SDS011;7486;51.010;10.366;2023-02-28T10:04:54;5.03;;;3.30;;
14789;SDS011;7486;51.010;10.366;2023-02-28T10:10:48;4.47;;;2.97;;
14789;SDS011;7486;51.010;10.366;2023-02-28T10:13:39;3.27;;;2.93;;
14789;SDS011;7486;51.010;10.366;2023-02-28T10:16:49;4.63;;;3.00;;
14789;SDS011;7486;51.010;10.366;2023-02-28T10:19:47;3.87;;;3.30;;
14789;SDS011;7486;51.010;10.366;2023-02-28T10:22:52;3.80;;;3.00;;
14789;SDS011;7486;51.010;10.366;2023-02-28T10:25:44;5.60;;;3.47;;
14789;SDS011;7486;51.010;10.366;2023-02-28T10:28:35;5.37;;;3.20;;
14789;SDS011;7486;51.010;10.366;2023-02-28T10:31:20;3.37;;;2.80;;
14789;SDS011;7486;51.010;10.366;2023-02-28T10:34:08;3.13;;;2.80;;
14789;SDS011;7486;51.010;10.366;2023-02-28T10:36:57;4.17;;;2.70;;
14789;SDS011;7486;51.010;10.366;2023-02-28T10:39:44;3.63;;;2.83;;
14789;SDS011;7486;51.010;10.366;2023-02-28T10:42:32;3.37;;;2.93;;
14789;SDS011;7486;51.010;10.366;2023-02-28T10:45:18;4.00;;;3.17;;
14789;SDS011;7486;51.010;10.366;2023-02-28T10:48:05;4.03;;;3.20;;
14789;SDS011;7486;51.010;10.366;2023-02-28T10:51:10;3.80;;;3.00;;
14789;SDS011;7486;51.010;10.366;2023-02-28T10:54:18;3.47;;;2.77;;
14789;SDS011;7486;51.010;10.366;2023-02-28T10:57:18;4.97;;;2.97;;
14789;SDS011;7486;51.010;10.366;2023-02-28T11:00:20;3.87;;;2.77;;
14789;SDS011;7486;51.010;10.366;2023-02-28T11:03:22;3.70;;;3.20;;
14789;SDS011;7486;51.010;10.366;2023-02-28T11:06:20;4.53;;;3.07;;
14789;SDS011;7486;51.010;10.366;2023-02-28T11:12:44;3.43;;;3.00;;
14789;SDS011;7486;51.010;10.366;2023-02-28T11:15:35;3.60;;;2.70;;
14789;SDS011;7486;51.010;10.366;2023-02-28T11:18:30;4.47;;;3.57;;
14789;SDS011;7486;51.010;10.366;2023-02-28T11:21:39;4.27;;;3.10;;
14789;SDS011;7486;51.010;10.366;2023-02-28T11:24:33;3.20;;;2.90;;
14789;SDS011;7486;51.010;10.366;2023-02-28T11:33:22;3.43;;;2.73;;
14789;SDS011;7486;51.010;10.366;2023-02-28T11:36:25;4.60;;;2.90;;
14789;SDS011;7486;51.010;10.366;2023-02-28T11:39:13;3.80;;;2.90;;
14789;SDS011;7486;51.010;10.366;2023-02-28T11:42:05;3.40;;;3.10;;
14789;SDS011;7486;51.010;10.366;2023-02-28T11:51:15;4.10;;;3.50;;
14789;SDS011;7486;51.010;10.366;2023-02-28T11:54:24;3.10;;;2.80;;
14789;SDS011;7486;51.010;10.366;2023-02-28T12:06:22;4.60;;;3.70;;
14789;SDS011;7486;51.010;10.366;2023-02-28T12:09:34;3.97;;;3.57;;
14789;SDS011;7486;51.010;10.366;2023-02-28T12:27:53;5.00;;;3.03;;
14789;SDS011;7486;51.010;10.366;2023-02-28T12:30:41;5.13;;;3.40;;
14789;SDS011;7486;51.010;10.366;2023-02-28T12:33:36;5.33;;;3.80;;
14789;SDS011;7486;51.010;10.366;2023-02-28T12:36:27;3.50;;;3.10;;
14789;SDS011;7486;51.010;10.366;2023-02-28T12:39:15;4.20;;;3.33;;
14789;SDS011;7486;51.010;10.366;2023-02-28T12:42:19;3.90;;;3.40;;
14789;SDS011;7486;51.010;10.366;2023-02-28T12:45:16;5.87;;;4.20;;
14789;SDS011;7486;51.010;10.366;2023-02-28T12:48:05;4.83;;;3.90;;
14789;SDS011;7486;51.010;10.366;2023-02-28T12:50:55;4.43;;;3.63;;
14789;SDS011;7486;51.010;10.366;2023-02-28T12:56:44;4.80;;;3.70;;
14789;SDS011;7486;51.010;10.366;2023-02-28T12:59:46;5.13;;;4.00;;
14789;SDS011;7486;51.010;10.366;2023-02-28T13:12:12;3.97;;;3.57;;
14789;SDS011;7486;51.010;10.366;2023-02-28T13:15:04;4.30;;;3.90;;
14789;SDS011;7486;51.010;10.366;2023-02-28T13:17:51;4.30;;;3.90;;
14789;SDS011;7486;51.010;10.366;2023-02-28T13:20:39;6.83;;;4.07;;
14789;SDS011;7486;51.010;10.366;2023-02-28T13:37:42;5.30;;;4.37;;
14789;SDS011;7486;51.010;10.366;2023-02-28T13:40:30;5.23;;;4.47;;
14789;SDS011;7486;51.010;10.366;2023-02-28T13:43:18;5.30;;;4.80;;
14789;SDS011;7486;51.010;10.366;2023-02-28T13:46:15;5.17;;;4.60;;
14789;SDS011;7486;51.010;10.366;2023-02-28T13:58:05;5.83;;;4.67;;
14789;SDS011;7486;51.010;10.366;2023-02-28T14:01:17;5.60;;;4.40;;
14789;SDS011;7486;51.010;10.366;2023-02-28T14:07:21;4.60;;;4.20;;
14789;SDS011;7486;51.010;10.366;2023-02-28T14:10:20;6.00;;;4.87;;
14789;SDS011;7486;51.010;10.366;2023-02-28T14:16:17;4.67;;;4.20;;
14789;SDS011;7486;51.010;10.366;2023-02-28T14:19:19;5.00;;;4.30;;
14789;SDS011;7486;51.010;10.366;2023-02-28T14:22:20;4.80;;;4.40;;
14789;SDS011;7486;51.010;10.366;2023-02-28T14:31:34;5.20;;;4.27;;
14789;SDS011;7486;51.010;10.366;2023-02-28T14:37:32;6.00;;;4.43;;
14789;SDS011;7486;51.010;10.366;2023-02-28T14:40:32;5.67;;;4.70;;
14789;SDS011;7486;51.010;10.366;2023-02-28T14:43:23;5.33;;;4.53;;
14789;SDS011;7486;51.010;10.366;2023-02-28T14:46:10;5.10;;;4.47;;
14789;SDS011;7486;51.010;10.366;2023-02-28T14:48:58;5.63;;;4.57;;
14789;SDS011;7486;51.010;10.366;2023-02-28T14:51:43;5.63;;;4.83;;
14789;SDS011;7486;51.010;10.366;2023-02-28T14:54:29;6.90;;;4.40;;
14789;SDS011;7486;51.010;10.366;2023-02-28T14:57:30;4.80;;;4.30;;
14789;SDS011;7486;51.010;10.366;2023-02-28T15:00:28;5.67;;;5.07;;
14789;SDS011;7486;51.010;10.366;2023-02-28T15:03:18;4.87;;;4.13;;
14789;SDS011;7486;51.010;10.366;2023-02-28T15:06:24;6.37;;;4.70;;
14789;SDS011;7486;51.010;10.366;2023-02-28T15:09:16;7.17;;;4.83;;
14789;SDS011;7486;51.010;10.366;2023-02-28T15:12:03;5.93;;;4.80;;
14789;SDS011;7486;51.010;10.366;2023-02-28T15:14:49;5.70;;;4.93;;
14789;SDS011;7486;51.010;10.366;2023-02-28T15:17:36;5.87;;;5.13;;
14789;SDS011;7486;51.010;10.366;2023-02-28T15:20:21;6.00;;;5.17;;
14789;SDS011;7486;51.010;10.366;2023-02-28T15:23:08;6.23;;;5.07;;
14789;SDS011;7486;51.010;10.366;2023-02-28T15:25:55;7.30;;;4.97;;
14789;SDS011;7486;51.010;10.366;2023-02-28T15:28:42;7.40;;;4.83;;
14789;SDS011;7486;51.010;10.366;2023-02-28T15:31:32;6.13;;;4.70;;
14789;SDS011;7486;51.010;10.366;2023-02-28T15:37:44;7.50;;;5.67;;
14789;SDS011;7486;51.010;10.366;2023-02-28T15:40:36;6.27;;;5.07;;
14789;SDS011;7486;51.010;10.366;2023-02-28T15:46:09;6.80;;;5.93;;
14789;SDS011;7486;51.010;10.366;2023-02-28T15:48:57;7.37;;;5.53;;
14789;SDS011;7486;51.010;10.366;2023-02-28T15:51:42;7.00;;;5.60;;
14789;SDS011;7486;51.010;10.366;2023-02-28T15:54:34;6.30;;;5.70;;
14789;SDS011;7486;51.010;10.366;2023-02-28T15:57:20;6.43;;;5.73;;
14789;SDS011;7486;51.010;10.366;2023-02-28T16:00:11;6.90;;;5.53;;
14789;SDS011;7486;51.010;10.366;2023-02-28T16:02:58;7.50;;;5.90;;
14789;SDS011;7486;51.010;10.366;2023-02-28T16:05:44;6.87;;;5.70;;
14789;SDS011;7486;51.010;10.366;2023-02-28T16:08:30;6.60;;;5.60;;
14789;SDS011;7486;51.010;10.366;2023-02-28T16:11:15;7.50;;;5.90;;
14789;SDS011;7486;51.010;10.366;2023-02-28T16:14:00;7.57;;;5.77;;
14789;SDS011;7486;51.010;10.366;2023-02-28T16:16:47;7.17;;;5.70;;
14789;SDS011;7486;51.010;10.366;2023-02-28T16:19:35;11.03;;;5.80;;
14789;SDS011;7486;51.010;10.366;2023-02-28T16:22:21;6.57;;;5.70;;
14789;SDS011;7486;51.010;10.366;2023-02-28T16:25:07;8.00;;;5.70;;
14789;SDS011;7486;51.010;10.366;2023-02-28T16:27:56;7.07;;;5.43;;
14789;SDS011;7486;51.010;10.366;2023-02-28T16:30:42;6.47;;;5.07;;
14789;SDS011;7486;51.010;10.366;2023-02-28T16:33:28;8.57;;;5.93;;
14789;SDS011;7486;51.010;10.366;2023-02-28T16:36:15;7.00;;;5.63;;
14789;SDS011;7486;51.010;10.366;2023-02-28T16:39:02;6.43;;;5.67;;
14789;SDS011;7486;51.010;10.366;2023-02-28T16:41:50;6.30;;;5.60;;
14789;SDS011;7486;51.010;10.366;2023-02-28T16:44:36;7.53;;;6.00;;
14789;SDS011;7486;51.010;10.366;2023-02-28T16:47:22;7.13;;;5.83;;
14789;SDS011;7486;51.010;10.366;2023-02-28T16:50:17;7.60;;;5.73;;
14789;SDS011;7486;51.010;10.366;2023-02-28T16:53:10;6.67;;;5.97;;
14789;SDS011;7486;51.010;10.366;2023-02-28T16:55:56;10.23;;;6.50;;
14789;SDS011;7486;51.010;10.366;2023-02-28T16:58:41;9.33;;;6.13;;
14789;SDS011;7486;51.010;10.366;2023-02-28T17:01:27;8.20;;;6.93;;
14789;SDS011;7486;51.010;10.366;2023-02-28T17:04:13;7.70;;;6.23;;
14789;SDS011;7486;51.010;10.366;2023-02-28T17:06:59;9.03;;;6.93;;
14789;SDS011;7486;51.010;10.366;2023-02-28T17:09:44;7.30;;;6.47;;
14789;SDS011;7486;51.010;10.366;2023-02-28T17:12:31;10.13;;;6.43;;
14789;SDS011;7486;51.010;10.366;2023-02-28T17:15:17;8.07;;;6.27;;
14789;SDS011;7486;51.010;10.366;2023-02-28T17:18:04;8.90;;;6.67;;
14789;SDS011;7486;51.010;10.366;2023-02-28T17:20:50;8.63;;;6.70;;
14789;SDS011;7486;51.010;10.366;2023-02-28T17:23:35;8.63;;;7.03;;
14789;SDS011;7486;51.010;10.366;2023-02-28T17:26:21;8.47;;;6.80;;
14789;SDS011;7486;51.010;10.366;2023-02-28T17:29:17;7.77;;;6.77;;
14789;SDS011;7486;51.010;10.366;2023-02-28T17:32:05;7.33;;;6.47;;
14789;SDS011;7486;51.010;10.366;2023-02-28T17:35:01;9.60;;;6.63;;
14789;SDS011;7486;51.010;10.366;2023-02-28T17:37:47;10.17;;;7.03;;
14789;SDS011;7486;51.010;10.366;2023-02-28T17:40:33;9.00;;;6.87;;
14789;SDS011;7486;51.010;10.366;2023-02-28T17:43:18;9.63;;;7.00;;
14789;SDS011;7486;51.010;10.366;2023-02-28T17:46:05;9.20;;;7.13;;
14789;SDS011;7486;51.010;10.366;2023-02-28T17:48:51;10.10;;;7.00;;
14789;SDS011;7486;51.010;10.366;2023-02-28T17:51:39;8.37;;;6.90;;
14789;SDS011;7486;51.010;10.366;2023-02-28T17:54:24;9.67;;;7.77;;
14789;SDS011;7486;51.010;10.366;2023-02-28T17:57:16;10.70;;;7.87;;
14789;SDS011;7486;51.010;10.366;2023-02-28T18:00:01;9.80;;;7.47;;
14789;SDS011;7486;51.010;10.366;2023-02-28T18:02:55;8.53;;;6.73;;
14789;SDS011;7486;51.010;10.366;2023-02-28T18:05:40;9.17;;;7.50;;
14789;SDS011;7486;51.010;10.366;2023-02-28T18:08:26;9.03;;;7.20;;
14789;SDS011;7486;51.010;10.366;2023-02-28T18:11:11;9.50;;;7.40;;
14789;SDS011;7486;51.010;10.366;2023-02-28T18:13:57;9.27;;;7.60;;
14789;SDS011;7486;51.010;10.366;2023-02-28T18:16:43;11.20;;;7.50;;
14789;SDS011;7486;51.010;10.366;2023-02-28T18:19:29;10.53;;;7.43;;
14789;SDS011;7486;51.010;10.366;2023-02-28T18:22:15;8.83;;;6.90;;
14789;SDS011;7486;51.010;10.366;2023-02-28T18:25:00;8.80;;;7.33;;
14789;SDS011;7486;51.010;10.366;2023-02-28T18:27:45;8.43;;;6.93;;
14789;SDS011;7486;51.010;10.366;2023-02-28T18:30:32;11.57;;;7.80;;
14789;SDS011;7486;51.010;10.366;2023-02-28T18:33:20;9.00;;;7.23;;
14789;SDS011;7486;51.010;10.366;2023-02-28T18:36:05;10.87;;;7.53;;
14789;SDS011;7486;51.010;10.366;2023-02-28T18:38:51;9.90;;;7.13;;
14789;SDS011;7486;51.010;10.366;2023-02-28T18:41:38;9.43;;;7.43;;
14789;SDS011;7486;51.010;10.366;2023-02-28T18:44:24;10.77;;;7.80;;
14789;SDS011;7486;51.010;10.366;2023-02-28T18:47:09;9.37;;;7.53;;
14789;SDS011;7486;51.010;10.366;2023-02-28T18:49:54;11.40;;;7.50;;
14789;SDS011;7486;51.010;10.366;2023-02-28T18:52:40;9.30;;;7.90;;
14789;SDS011;7486;51.010;10.366;2023-02-28T18:55:26;10.00;;;8.30;;
14789;SDS011;7486;51.010;10.366;2023-02-28T18:58:12;10.37;;;7.40;;
14789;SDS011;7486;51.010;10.366;2023-02-28T19:00:58;11.70;;;8.13;;
14789;SDS011;7486;51.010;10.366;2023-02-28T19:03:44;11.50;;;8.13;;
14789;SDS011;7486;51.010;10.366;2023-02-28T19:06:33;9.67;;;7.70;;
14789;SDS011;7486;51.010;10.366;2023-02-28T19:09:19;12.23;;;8.77;;
14789;SDS011;7486;51.010;10.366;2023-02-28T19:12:05;10.37;;;8.20;;
14789;SDS011;7486;51.010;10.366;2023-02-28T19:14:52;11.93;;;8.97;;
14789;SDS011;7486;51.010;10.366;2023-02-28T19:17:38;11.77;;;8.93;;
14789;SDS011;7486;51.010;10.366;2023-02-28T19:20:23;11.43;;;8.60;;
14789;SDS011;7486;51.010;10.366;2023-02-28T19:23:09;13.97;;;8.83;;
14789;SDS011;7486;51.010;10.366;2023-02-28T19:25:54;12.80;;;9.47;;
14789;SDS011;7486;51.010;10.366;2023-02-28T19:28:39;13.03;;;9.87;;
14789;SDS011;7486;51.010;10.366;2023-02-28T19:31:25;13.73;;;9.13;;
14789;SDS011;7486;51.010;10.366;2023-02-28T19:34:11;10.03;;;9.03;;
14789;SDS011;7486;51.010;10.366;2023-02-28T19:36:56;11.80;;;9.40;;